Time;durP1;ratioP1;P1;durP2;ratioP2;P2;SDS_P1;SDS_P2;PMS_P1;PMS_P2;Temp;Humidity;BMP_temperature;BMP_pressure;BME280_temperature;BME280_humidity;BME280_pressure;Samples;Min_cycle;Max_cycle;Signal;HPM_P1;HPM_P2
2022/06/23 00:02:21;;;;;;;10.13;3.70;;;;;;;24.13;41.71;100986.53;5027762;27;101881;-70
2022/06/23 00:04:50;;;;;;;6.45;3.10;;;;;;;24.29;41.34;100991.44;5028604;27;101594;-70
2022/06/23 00:07:20;;;;;;;6.57;3.30;;;;;;;24.32;40.93;100996.56;5024620;27;97581;-71
2022/06/23 00:09:51;;;;;;;4.50;3.10;;;;;;;24.29;40.96;100992.28;5020923;27;98514;-70
2022/06/23 00:12:26;;;;;;;7.32;3.45;;;;;;;24.23;41.12;100999.09;5024991;27;101089;-70
2022/06/23 00:14:55;;;;;;;5.32;3.40;;;;;;;24.20;41.38;100999.38;5023498;28;98902;-70
2022/06/23 00:17:28;;;;;;;5.95;3.38;;;;;;;24.28;41.23;100996.00;5019465;27;97094;-70
2022/06/23 00:19:55;;;;;;;8.45;3.78;;;;;;;24.28;41.30;101000.53;5026675;27;97239;-69
2022/06/23 00:22:25;;;;;;;6.07;3.63;;;;;;;24.23;40.79;100999.09;5023686;27;98894;-69
2022/06/23 00:24:55;;;;;;;11.05;3.47;;;;;;;24.16;41.14;100997.88;5028260;27;99100;-71
2022/06/23 00:27:27;;;;;;;7.72;3.45;;;;;;;24.22;40.99;101001.91;5025408;28;96866;-71
2022/06/23 00:29:58;;;;;;;6.60;3.55;;;;;;;24.15;41.28;101011.53;5023818;27;97759;-71
2022/06/23 00:32:26;;;;;;;8.60;3.78;;;;;;;23.94;41.61;101002.63;5022305;28;99649;-71
2022/06/23 00:34:58;;;;;;;7.47;3.50;;;;;;;23.96;41.62;101006.06;5027155;28;98409;-72
2022/06/23 00:37:25;;;;;;;7.22;3.40;;;;;;;24.07;41.00;101005.97;5027189;28;96927;-71
2022/06/23 00:39:55;;;;;;;7.18;3.75;;;;;;;24.16;40.75;100997.03;5025372;28;97793;-70
2022/06/23 00:42:24;;;;;;;6.70;3.58;;;;;;;24.03;40.91;100999.97;5022607;27;99540;-71
2022/06/23 00:44:56;;;;;;;12.02;4.32;;;;;;;23.93;41.35;101000.91;5024628;27;99013;-71
2022/06/23 00:47:30;;;;;;;8.20;3.50;;;;;;;24.02;41.15;101000.97;5026048;27;97600;-71
2022/06/23 00:50:02;;;;;;;7.30;3.30;;;;;;;24.12;40.85;101009.09;5023932;28;98956;-71
2022/06/23 00:52:35;;;;;;;7.10;3.70;;;;;;;24.00;41.27;101004.78;5023273;28;97870;-70
2022/06/23 00:55:11;;;;;;;8.52;3.65;;;;;;;24.03;41.06;101005.34;5019043;27;97992;-70
2022/06/23 00:57:42;;;;;;;11.73;4.50;;;;;;;23.96;41.21;101012.28;5023591;27;97318;-72
2022/06/23 01:00:18;;;;;;;9.43;3.72;;;;;;;23.90;41.42;101010.13;5028166;27;96889;-70
2022/06/23 01:02:51;;;;;;;8.70;4.13;;;;;;;23.91;41.16;101010.97;5022754;28;100446;-69
2022/06/23 01:05:23;;;;;;;6.18;3.78;;;;;;;23.87;41.07;101006.84;5026383;27;99003;-70
2022/06/23 01:07:58;;;;;;;6.32;3.88;;;;;;;23.70;41.69;101011.84;5019522;28;98535;-70
2022/06/23 01:10:32;;;;;;;6.43;3.22;;;;;;;23.62;42.10;101016.22;5022407;27;97005;-71
2022/06/23 01:13:06;;;;;;;4.78;3.40;;;;;;;23.76;41.51;101013.19;5023339;28;99130;-70
2022/06/23 01:15:38;;;;;;;7.80;3.70;;;;;;;23.79;41.33;101026.38;5023965;27;99152;-69
2022/06/23 01:20:59;;;;;;;8.23;4.25;;;;;;;23.59;41.65;101011.91;5021796;28;97314;-70
2022/06/23 01:23:36;;;;;;;6.90;4.10;;;;;;;23.75;41.07;101014.16;5027695;27;99093;-70
2022/06/23 01:26:22;;;;;;;7.95;3.75;;;;;;;23.68;41.62;101016.53;5030735;27;100391;-70
2022/06/23 01:28:57;;;;;;;9.13;4.05;;;;;;;23.61;41.59;101011.78;5026340;28;97242;-70
2022/06/23 01:31:27;;;;;;;6.72;3.70;;;;;;;23.67;41.43;101012.13;5023226;27;98377;-69
2022/06/23 01:33:59;;;;;;;9.57;3.60;;;;;;;23.65;41.23;101003.28;5026015;27;100182;-70
2022/06/23 01:36:31;;;;;;;7.00;3.42;;;;;;;23.55;41.56;101005.09;5023206;28;97955;-70
2022/06/23 01:39:03;;;;;;;12.13;3.80;;;;;;;23.61;41.29;100999.16;5026300;27;97006;-71
2022/06/23 01:41:34;;;;;;;6.53;3.25;;;;;;;23.57;41.41;100999.53;5027041;27;96848;-69
2022/06/23 01:44:12;;;;;;;7.60;3.40;;;;;;;23.55;41.37;100998.84;5025980;27;99390;-69
2022/06/23 01:46:41;;;;;;;9.68;4.25;;;;;;;23.57;41.30;100999.53;5025293;27;100618;-70
2022/06/23 01:49:14;;;;;;;6.35;3.35;;;;;;;23.52;41.38;101005.34;5032414;27;96830;-70
2022/06/23 01:51:46;;;;;;;6.38;4.07;;;;;;;23.34;41.69;101004.19;5028161;27;96786;-69
2022/06/23 01:54:16;;;;;;;8.00;3.35;;;;;;;23.50;41.42;101006.47;5029588;27;98337;-70
2022/06/23 01:56:53;;;;;;;11.35;3.83;;;;;;;23.41;41.86;101011.63;5029553;27;98917;-70
2022/06/23 01:59:38;;;;;;;8.15;3.80;;;;;;;23.29;41.73;101018.06;5023459;27;97766;-70
2022/06/23 02:02:18;;;;;;;9.95;3.70;;;;;;;23.36;41.73;101018.41;5026029;27;98713;-70
2022/06/23 02:04:52;;;;;;;8.95;3.83;;;;;;;23.27;41.89;101019.16;5025832;27;99129;-69
2022/06/23 02:07:27;;;;;;;6.55;3.97;;;;;;;23.38;41.78;101025.34;5022636;27;98918;-70
2022/06/23 02:10:00;;;;;;;10.23;3.90;;;;;;;23.31;41.89;101026.00;5025817;28;98713;-70
2022/06/23 02:12:31;;;;;;;6.65;3.72;;;;;;;23.26;41.89;101023.69;5029594;27;96941;-70
2022/06/23 02:15:06;;;;;;;5.18;3.35;;;;;;;23.25;42.40;101024.69;5027389;27;99420;-70
2022/06/23 02:17:40;;;;;;;8.38;3.97;;;;;;;23.21;42.40;101030.47;5026982;27;102635;-70
2022/06/23 02:20:22;;;;;;;7.82;4.15;;;;;;;23.33;42.09;101027.59;5028277;28;96900;-70
2022/06/23 02:22:49;;;;;;;7.47;3.80;;;;;;;23.38;41.87;101030.75;5025310;28;97842;-71
2022/06/23 02:25:30;;;;;;;6.35;4.07;;;;;;;23.28;42.01;101027.13;5024157;28;99354;-71
2022/06/23 02:28:04;;;;;;;8.95;3.90;;;;;;;23.29;42.21;101047.72;5023530;27;98756;-71
2022/06/23 02:30:36;;;;;;;7.60;3.97;;;;;;;23.22;42.42;101037.56;5028430;27;96810;-72
2022/06/23 02:33:13;;;;;;;9.52;4.65;;;;;;;23.17;42.57;101042.50;5028747;27;97062;-71
2022/06/23 02:35:46;;;;;;;6.60;3.95;;;;;;;23.17;42.76;101043.31;5026903;28;101060;-71
2022/06/23 02:38:21;;;;;;;8.35;4.25;;;;;;;23.11;43.01;101046.53;5022984;27;98541;-71
2022/06/23 02:40:49;;;;;;;10.35;4.05;;;;;;;23.11;42.90;101051.06;5020461;28;96736;-71
2022/06/23 02:43:25;;;;;;;10.60;4.45;;;;;;;23.14;42.73;101050.81;5027599;27;98508;-70
2022/06/23 02:46:14;;;;;;;8.52;3.78;;;;;;;23.05;43.12;101049.75;5024012;27;99342;-71
2022/06/23 02:49:02;;;;;;;7.38;3.92;;;;;;;23.08;43.18;101056.72;5028046;27;100708;-71
2022/06/23 02:51:50;;;;;;;7.32;3.65;;;;;;;23.10;43.27;101061.03;5025243;27;96823;-70
2022/06/23 02:54:42;;;;;;;9.35;4.00;;;;;;;23.15;43.08;101058.78;5028394;27;98404;-71
2022/06/23 02:57:28;;;;;;;11.60;4.60;;;;;;;23.03;43.14;101067.91;5025532;27;99403;-71
2022/06/23 03:00:01;;;;;;;9.27;3.72;;;;;;;23.12;42.88;101069.81;5028712;27;101001;-71
2022/06/23 03:02:35;;;;;;;9.48;3.72;;;;;;;23.08;42.90;101064.81;5024807;27;97570;-71
2022/06/23 03:05:07;;;;;;;8.35;4.57;;;;;;;23.09;42.88;101067.38;5026774;27;96859;-71
2022/06/23 03:07:41;;;;;;;10.48;4.32;;;;;;;22.98;43.01;101070.09;5023116;27;99232;-71
2022/06/23 03:10:14;;;;;;;7.28;4.00;;;;;;;23.04;43.09;101073.13;5027573;27;98949;-71
2022/06/23 03:12:47;;;;;;;9.25;4.45;;;;;;;23.11;42.90;101068.09;5026784;27;97710;-71
2022/06/23 03:15:22;;;;;;;10.55;4.40;;;;;;;23.06;42.98;101067.63;5028697;27;98856;-72
2022/06/23 03:17:55;;;;;;;6.07;4.15;;;;;;;22.92;43.34;101068.75;5024225;27;99644;-71
2022/06/23 03:20:38;;;;;;;7.53;4.10;;;;;;;23.04;43.21;101073.13;5025123;27;98859;-71
2022/06/23 03:23:14;;;;;;;9.18;4.57;;;;;;;23.09;43.00;101082.69;5028350;27;97562;-71
2022/06/23 03:25:48;;;;;;;9.00;4.13;;;;;;;22.91;43.23;101080.50;5026080;27;97648;-71
2022/06/23 03:28:23;;;;;;;7.80;4.10;;;;;;;22.99;43.14;101075.34;5026978;27;98956;-71
2022/06/23 03:30:58;;;;;;;8.30;4.22;;;;;;;23.04;43.03;101091.16;5027844;27;99571;-71
2022/06/23 03:33:34;;;;;;;8.38;4.20;;;;;;;23.03;43.11;101086.75;5025916;27;96841;-71
2022/06/23 03:36:05;;;;;;;10.40;5.90;;;;;;;22.98;43.19;101092.50;5027866;27;97303;-70
2022/06/23 03:41:39;;;;;;;8.32;4.53;;;;;;;23.09;42.71;101091.66;4978187;27;97995;-70
2022/06/23 03:44:25;;;;;;;12.18;4.32;;;;;;;23.16;42.80;101092.84;5025280;27;96779;-71
2022/06/23 03:46:57;;;;;;;8.18;4.88;;;;;;;23.18;42.32;101090.88;5029099;27;96796;-68
2022/06/23 03:49:37;;;;;;;9.02;4.28;;;;;;;23.10;42.26;101093.38;5020792;28;99928;-70
2022/06/23 03:52:14;;;;;;;8.75;3.92;;;;;;;23.18;42.12;101098.97;5023236;28;99598;-70
2022/06/23 03:54:49;;;;;;;8.60;4.25;;;;;;;23.12;41.91;101101.28;5021945;27;98043;-70
2022/06/23 03:57:24;;;;;;;8.15;4.13;;;;;;;23.26;41.92;101103.72;5021614;28;97634;-71
2022/06/23 04:00:02;;;;;;;6.10;3.65;;;;;;;23.44;41.58;101094.09;5025455;28;98037;-70
2022/06/23 04:02:35;;;;;;;4.93;3.70;;;;;;;23.54;41.40;101094.22;5027774;27;98896;-73
2022/06/23 04:05:16;;;;;;;8.88;4.53;;;;;;;23.48;41.11;101101.00;5028735;28;97497;-71
2022/06/23 04:07:50;;;;;;;9.60;4.10;;;;;;;23.42;40.86;101098.78;5023842;27;96828;-72
2022/06/23 04:10:23;;;;;;;6.93;3.85;;;;;;;23.67;40.39;101103.00;5025993;27;98190;-71
2022/06/23 04:12:55;;;;;;;6.95;3.75;;;;;;;23.74;40.20;101114.97;5023606;28;97514;-71
2022/06/23 04:15:26;;;;;;;8.00;3.65;;;;;;;23.72;40.25;101109.69;5025435;27;97010;-71
2022/06/23 04:17:56;;;;;;;6.05;3.42;;;;;;;23.75;39.93;101109.47;5023629;27;98785;-70
2022/06/23 04:20:33;;;;;;;7.70;3.67;;;;;;;23.84;39.50;101115.88;5022465;27;100934;-71
2022/06/23 04:23:05;;;;;;;6.00;3.70;;;;;;;23.94;39.45;101126.78;5024038;28;99097;-71
2022/06/23 04:25:44;;;;;;;9.65;3.90;;;;;;;23.96;39.42;101136.44;5028059;28;98174;-70
2022/06/23 04:28:20;;;;;;;9.60;5.15;;;;;;;24.12;38.61;101134.16;5024440;27;97057;-70
2022/06/23 04:30:47;;;;;;;4.57;3.58;;;;;;;24.14;38.44;101129.47;5020147;28;99034;-71
2022/06/23 04:33:18;;;;;;;6.40;3.50;;;;;;;24.21;38.53;101144.19;5019950;28;99031;-71
2022/06/23 04:35:49;;;;;;;11.38;4.15;;;;;;;24.29;38.29;101138.09;5023651;28;97127;-71
2022/06/23 04:38:22;;;;;;;11.63;3.20;;;;;;;24.42;38.15;101136.06;5023092;27;96841;-70
2022/06/23 04:40:50;;;;;;;9.18;3.45;;;;;;;24.41;38.18;101133.50;5022871;27;98755;-72
2022/06/23 04:43:20;;;;;;;5.85;3.20;;;;;;;24.49;37.72;101133.66;5020664;28;99284;-71
2022/06/23 04:45:55;;;;;;;7.22;3.30;;;;;;;24.48;37.66;101134.69;5025135;27;97760;-70
2022/06/23 04:48:28;;;;;;;7.35;3.00;;;;;;;24.69;37.36;101140.88;5025655;28;99086;-69
2022/06/23 04:51:02;;;;;;;6.97;3.80;;;;;;;24.82;37.45;101140.63;5026752;28;99019;-69
2022/06/23 04:53:41;;;;;;;8.48;3.78;;;;;;;24.85;36.96;101141.25;5023414;28;97565;-70
2022/06/23 04:56:14;;;;;;;10.65;3.30;;;;;;;25.07;36.28;101142.06;5026897;27;98659;-70
2022/06/23 04:58:48;;;;;;;6.00;3.05;;;;;;;25.10;36.70;101133.66;5027718;27;99307;-70
2022/06/23 05:01:17;;;;;;;9.27;3.40;;;;;;;25.23;36.55;101145.94;5023118;27;100652;-69
2022/06/23 05:03:49;;;;;;;6.35;3.08;;;;;;;25.61;36.18;101138.88;5022719;27;101800;-71
2022/06/23 05:06:24;;;;;;;8.15;3.60;;;;;;;26.75;33.75;101147.00;5023353;27;98830;-70
2022/06/23 05:08:52;;;;;;;7.93;3.20;;;;;;;27.27;32.20;101149.03;5023256;27;98858;-71
2022/06/23 05:11:25;;;;;;;8.32;3.20;;;;;;;27.12;32.55;101139.69;5023405;28;99339;-70
2022/06/23 05:13:55;;;;;;;6.00;3.17;;;;;;;27.18;32.72;101149.94;5026064;27;98644;-70
2022/06/23 05:16:27;;;;;;;4.05;3.08;;;;;;;27.93;31.43;101151.41;5020183;27;97636;-71
2022/06/23 05:18:56;;;;;;;7.75;2.92;;;;;;;30.58;26.91;101150.00;5025897;27;97223;-71
2022/06/23 05:21:28;;;;;;;8.77;3.08;;;;;;;30.13;27.30;101156.00;5018933;27;99580;-72
2022/06/23 05:23:59;;;;;;;7.90;2.80;;;;;;;29.30;28.75;101151.41;5028934;27;99070;-71
2022/06/23 05:26:31;;;;;;;6.90;2.75;;;;;;;28.62;29.67;101158.72;5024257;28;99113;-71
2022/06/23 05:29:02;;;;;;;7.15;3.45;;;;;;;28.20;30.39;101153.19;5026304;27;97279;-71
2022/06/23 05:31:32;;;;;;;7.00;2.83;;;;;;;27.94;30.98;101155.84;5022775;27;99400;-72
2022/06/23 05:34:05;;;;;;;12.43;2.97;;;;;;;27.67;30.63;101155.94;5030000;28;97786;-72
2022/06/23 05:36:44;;;;;;;7.85;2.70;;;;;;;27.40;30.89;101158.66;5029327;27;97366;-71
2022/06/23 05:39:17;;;;;;;10.05;3.20;;;;;;;27.43;31.27;101152.94;5027748;27;96927;-72
2022/06/23 05:41:47;;;;;;;7.85;2.72;;;;;;;27.35;31.09;101157.28;5031090;27;102274;-71
2022/06/23 05:44:19;;;;;;;4.70;2.50;;;;;;;27.28;31.32;101153.47;5025980;27;99000;-71
2022/06/23 05:46:47;;;;;;;8.55;2.50;;;;;;;26.96;32.00;101167.50;5028273;28;97105;-72
2022/06/23 05:49:18;;;;;;;5.80;2.80;;;;;;;27.29;31.63;101171.44;5029233;27;96807;-72
2022/06/23 05:51:53;;;;;;;6.75;2.70;;;;;;;27.11;31.32;101161.56;5031137;28;98903;-72
2022/06/23 05:54:24;;;;;;;6.93;2.83;;;;;;;27.06;31.25;101172.00;5029792;27;101598;-70
2022/06/23 05:56:56;;;;;;;6.35;2.58;;;;;;;27.12;30.80;101169.53;5029895;27;96867;-71
2022/06/23 05:59:28;;;;;;;6.13;2.78;;;;;;;26.82;31.19;101162.53;5031133;27;96746;-71
2022/06/23 06:01:58;;;;;;;9.13;2.70;;;;;;;27.13;30.99;101175.81;5028695;27;101987;-70
2022/06/23 06:04:31;;;;;;;5.07;2.20;;;;;;;27.05;30.88;101173.00;5020254;27;98751;-71
2022/06/23 06:07:00;;;;;;;5.10;2.30;;;;;;;27.55;30.49;101181.59;5022014;27;96863;-72
2022/06/23 06:09:37;;;;;;;7.97;2.42;;;;;;;27.48;30.50;101173.19;5031722;27;97045;-71
2022/06/23 06:12:06;;;;;;;10.85;2.72;;;;;;;27.64;30.47;101178.81;5028346;27;97827;-70
2022/06/23 06:14:39;;;;;;;6.65;2.40;;;;;;;27.69;30.35;101183.78;5029625;27;101280;-72
2022/06/23 06:17:06;;;;;;;8.48;2.40;;;;;;;27.38;30.50;101181.38;5023701;27;98487;-71
2022/06/23 06:19:35;;;;;;;5.15;2.08;;;;;;;27.55;30.70;101184.31;5024319;27;97414;-72
2022/06/23 06:22:19;;;;;;;7.97;2.40;;;;;;;27.67;30.45;101188.50;5027506;28;98984;-71
2022/06/23 06:24:51;;;;;;;6.07;2.40;;;;;;;27.85;30.31;101191.22;5029572;28;98898;-72
2022/06/23 06:27:19;;;;;;;9.20;2.55;;;;;;;27.70;30.33;101185.47;5030539;27;96820;-73
2022/06/23 06:29:49;;;;;;;5.97;2.58;;;;;;;27.84;30.19;101195.78;5026082;27;96863;-73
2022/06/23 06:32:27;;;;;;;7.50;2.97;;;;;;;27.80;30.42;101185.41;5024606;27;99333;-73
2022/06/23 06:34:58;;;;;;;3.03;2.10;;;;;;;28.11;30.21;101187.56;5021529;27;98952;-72
2022/06/23 06:37:31;;;;;;;8.27;2.80;;;;;;;28.26;29.93;101178.88;5023601;27;97729;-74
2022/06/23 06:40:00;;;;;;;7.57;2.10;;;;;;;28.26;29.59;101187.03;5026260;27;96921;-73
2022/06/23 06:42:30;;;;;;;5.35;2.35;;;;;;;28.49;29.34;101180.06;5029166;27;99236;-73
2022/06/23 06:45:00;;;;;;;5.72;2.40;;;;;;;28.68;29.39;101179.88;5030346;27;98933;-73
2022/06/23 06:47:29;;;;;;;7.60;2.17;;;;;;;28.93;28.64;101189.88;5023721;27;97241;-74
2022/06/23 06:50:02;;;;;;;6.75;2.40;;;;;;;29.12;28.54;101190.66;5026373;27;97548;-73
2022/06/23 06:52:31;;;;;;;7.72;2.70;;;;;;;29.35;28.41;101190.91;5025652;27;99244;-72
2022/06/23 06:55:03;;;;;;;12.48;2.22;;;;;;;29.36;28.12;101184.47;5021158;27;99347;-73
2022/06/23 06:57:34;;;;;;;9.20;2.42;;;;;;;29.30;28.19;101184.06;5027339;27;99034;-73
2022/06/23 07:00:07;;;;;;;7.45;2.28;;;;;;;29.34;28.67;101184.66;5029991;27;96728;-72
2022/06/23 07:02:38;;;;;;;7.65;2.58;;;;;;;29.05;28.48;101190.44;5025222;28;98956;-73
2022/06/23 07:05:18;;;;;;;6.25;2.50;;;;;;;29.05;28.44;101189.59;5023996;28;98937;-73
2022/06/23 07:07:51;;;;;;;6.43;2.70;;;;;;;28.87;28.68;101192.41;5031687;28;97291;-73
2022/06/23 07:10:26;;;;;;;9.02;2.60;;;;;;;29.18;28.81;101182.69;5027796;27;96940;-73
2022/06/23 07:12:56;;;;;;;6.63;2.65;;;;;;;29.19;28.60;101188.97;5022338;28;99659;-72
2022/06/23 07:15:30;;;;;;;4.82;2.78;;;;;;;29.03;28.76;101189.75;5028174;28;99187;-70
2022/06/23 07:18:02;;;;;;;2.67;1.95;;;;;;;29.31;28.30;101187.66;5022876;28;97700;-71
2022/06/23 07:20:38;;;;;;;5.57;2.85;;;;;;;29.07;28.94;101187.56;5029550;27;97559;-71
2022/06/23 07:23:12;;;;;;;5.95;2.50;;;;;;;29.20;29.01;101188.81;5029635;27;98957;-71
2022/06/23 07:25:45;;;;;;;5.57;2.40;;;;;;;29.38;28.79;101193.31;5027981;28;98147;-71
2022/06/23 07:28:17;;;;;;;8.98;2.83;;;;;;;29.46;28.80;101190.63;5030715;27;96783;-71
2022/06/23 07:30:47;;;;;;;5.57;2.50;;;;;;;29.59;28.56;101200.03;5030002;27;96699;-71
2022/06/23 07:33:21;;;;;;;9.30;2.72;;;;;;;30.03;28.30;101183.44;5025948;27;98130;-73
2022/06/23 07:35:55;;;;;;;4.20;2.40;;;;;;;30.08;27.90;101181.03;5026735;27;98869;-71
2022/06/23 07:38:30;;;;;;;5.00;2.55;;;;;;;30.34;27.50;101189.03;5027997;28;97559;-71
2022/06/23 07:41:02;;;;;;;5.77;2.43;;;;;;;30.46;27.57;101196.66;5027654;27;97066;-71
2022/06/23 07:43:35;;;;;;;11.38;3.60;;;;;;;30.66;27.09;101202.63;5023551;28;99153;-72
2022/06/23 07:46:02;;;;;;;6.40;2.35;;;;;;;30.78;26.98;101194.97;5030118;27;98800;-71
2022/06/23 07:48:32;;;;;;;5.10;2.00;;;;;;;30.75;26.61;101184.38;5023974;27;97429;-71
2022/06/23 07:50:59;;;;;;;4.60;2.25;;;;;;;30.66;27.08;101196.31;5031365;27;97032;-71
2022/06/23 07:53:30;;;;;;;8.45;2.38;;;;;;;30.58;26.93;101188.19;5028331;27;99307;-71
2022/06/23 07:55:58;;;;;;;6.40;2.22;;;;;;;30.67;26.68;101190.72;5024657;27;98895;-71
2022/06/23 07:58:28;;;;;;;3.35;2.00;;;;;;;30.83;27.12;101184.38;5022538;28;97453;-71
2022/06/23 08:00:59;;;;;;;14.68;2.95;;;;;;;30.83;26.84;101195.28;5031038;27;96807;-73
2022/06/23 08:03:34;;;;;;;4.68;2.40;;;;;;;30.36;27.24;101189.72;5014538;27;98499;-71
2022/06/23 08:06:06;;;;;;;5.88;2.58;;;;;;;30.51;27.10;101187.19;5023544;27;99247;-71
2022/06/23 08:08:38;;;;;;;10.25;2.03;;;;;;;30.56;27.34;101192.94;5026898;28;97187;-71
2022/06/23 08:14:05;;;;;;;5.50;2.30;;;;;;;30.91;26.66;101187.06;5026628;28;97272;-71
2022/06/23 08:16:50;;;;;;;5.20;2.30;;;;;;;30.12;27.67;101184.28;5022529;28;98914;-72
2022/06/23 08:19:30;;;;;;;8.02;2.13;;;;;;;30.43;27.37;101191.59;5024975;28;97086;-72
2022/06/23 08:22:04;;;;;;;6.18;2.30;;;;;;;30.66;26.67;101190.88;5023145;28;96794;-72
2022/06/23 08:24:33;;;;;;;4.22;2.08;;;;;;;30.84;26.42;101184.19;5019313;28;97677;-72
2022/06/23 08:27:02;;;;;;;4.40;2.22;;;;;;;30.65;26.58;101189.19;5025468;27;98985;-72
2022/06/23 08:29:36;;;;;;;8.23;1.90;;;;;;;30.70;25.78;101182.19;5025673;28;96746;-72
2022/06/23 08:32:03;;;;;;;9.77;5.90;;;;;;;30.97;25.51;101189.09;5032194;28;97117;-72
2022/06/23 08:34:32;;;;;;;5.03;1.75;;;;;;;30.93;25.49;101190.47;5032811;27;99248;-72
2022/06/23 08:37:04;;;;;;;6.47;1.85;;;;;;;30.95;26.04;101196.59;5028985;27;100952;-73
2022/06/23 08:39:43;;;;;;;5.70;1.98;;;;;;;31.09;25.53;101193.19;5031686;28;96904;-71
2022/06/23 08:42:18;;;;;;;6.07;1.73;;;;;;;31.17;25.34;101193.16;5030776;28;96756;-72
2022/06/23 08:44:53;;;;;;;4.28;1.95;;;;;;;31.06;25.42;101187.19;5026445;28;99304;-72
2022/06/23 08:47:25;;;;;;;4.10;1.73;;;;;;;31.12;26.06;101192.81;5029069;28;99314;-71
2022/06/23 08:49:56;;;;;;;3.78;1.75;;;;;;;30.79;25.60;101180.25;5027003;27;97293;-72
2022/06/23 08:52:31;;;;;;;5.05;2.50;;;;;;;30.86;25.51;101181.28;5027104;27;96913;-71
2022/06/23 08:55:04;;;;;;;4.53;1.77;;;;;;;31.38;25.32;101191.66;5029678;28;98946;-71
2022/06/23 08:57:35;;;;;;;6.53;2.60;;;;;;;31.30;25.46;101186.25;5030272;28;99662;-71
2022/06/23 09:00:06;;;;;;;5.53;1.83;;;;;;;31.36;25.05;101191.84;5030085;27;97998;-72
2022/06/23 09:02:38;;;;;;;5.47;1.90;;;;;;;31.55;24.98;101179.63;5025714;28;97677;-71
2022/06/23 09:05:12;;;;;;;5.40;1.80;;;;;;;31.20;25.27;101181.00;5030366;27;101780;-70
2022/06/23 09:07:46;;;;;;;5.85;2.25;;;;;;;31.43;24.77;101173.72;5032477;27;99324;-71
2022/06/23 09:10:29;;;;;;;5.72;1.70;;;;;;;31.55;25.09;101169.56;5023542;27;98617;-72
2022/06/23 09:13:07;;;;;;;5.03;1.77;;;;;;;31.79;24.48;101162.25;5028079;28;97071;-71
2022/06/23 09:15:52;;;;;;;3.33;1.50;;;;;;;32.02;24.16;101163.94;5026434;28;98923;-71
2022/06/23 09:18:54;;;;;;;5.95;1.70;;;;;;;31.88;23.59;101172.09;5031131;27;101838;-70
2022/06/23 09:21:30;;;;;;;3.90;1.50;;;;;;;31.90;23.56;101162.66;5031501;28;96782;-70
2022/06/23 09:24:34;;;;;;;2.97;1.83;;;;;;;32.11;23.51;101150.19;5030434;28;97311;-71
2022/06/23 09:27:14;;;;;;;3.88;1.40;;;;;;;32.14;23.48;101149.88;5011340;28;97876;-72
2022/06/23 09:29:57;;;;;;;1.95;1.40;;;;;;;32.18;23.06;101153.91;5025640;28;99350;-71
2022/06/23 09:32:42;;;;;;;5.15;1.63;;;;;;;31.95;23.22;101149.31;5032699;28;96992;-71
2022/06/23 09:35:41;;;;;;;2.78;1.40;;;;;;;31.89;23.58;101146.47;5031030;27;96912;-71
2022/06/23 09:38:23;;;;;;;3.30;1.48;;;;;;;31.97;23.55;101140.91;5020421;28;99101;-70
2022/06/23 09:41:01;;;;;;;4.50;1.60;;;;;;;32.08;23.54;101145.09;5028632;27;102576;-72
2022/06/23 09:43:54;;;;;;;2.45;1.50;;;;;;;32.17;23.02;101144.00;5032842;28;96876;-71
2022/06/23 09:46:46;;;;;;;5.50;1.50;;;;;;;32.11;22.23;101142.84;5031821;27;98300;-71
2022/06/23 09:49:31;;;;;;;3.78;1.50;;;;;;;32.12;21.93;101144.53;5027367;28;99150;-71
2022/06/23 09:52:24;;;;;;;2.65;1.52;;;;;;;32.17;21.92;101141.28;5030923;28;98930;-71
2022/06/23 09:55:05;;;;;;;5.15;1.55;;;;;;;31.91;22.20;101139.75;5031787;28;96940;-71
2022/06/23 09:58:07;;;;;;;8.50;1.90;;;;;;;31.88;22.68;101133.84;5029475;28;96779;-72
2022/06/23 10:00:45;;;;;;;5.25;1.50;;;;;;;32.13;22.21;101131.72;5029040;27;98918;-72
2022/06/23 10:03:25;;;;;;;5.70;1.98;;;;;;;32.21;21.52;101123.47;5031414;28;101329;-71
2022/06/23 10:06:09;;;;;;;3.25;1.40;;;;;;;32.18;20.99;101126.56;5032124;28;98916;-73
2022/06/23 10:08:47;;;;;;;2.75;1.33;;;;;;;32.22;21.32;101125.19;5026795;28;97071;-72
2022/06/23 10:11:42;;;;;;;5.18;1.40;;;;;;;32.13;21.08;101126.25;5028706;28;101645;-72
2022/06/23 10:14:20;;;;;;;5.60;1.60;;;;;;;32.06;21.36;101131.63;5016142;28;99302;-71
2022/06/23 10:17:04;;;;;;;3.95;1.25;;;;;;;32.18;21.66;101130.16;5031293;27;97120;-72
2022/06/23 10:19:47;;;;;;;3.53;1.75;;;;;;;32.07;22.21;101133.31;5027585;28;96717;-71
2022/06/23 10:22:29;;;;;;;3.70;1.60;;;;;;;32.03;21.78;101121.88;5031938;28;98923;-71
2022/06/23 10:25:21;;;;;;;7.97;1.98;;;;;;;31.75;21.66;101134.44;5031310;27;99188;-72
2022/06/23 10:28:05;;;;;;;4.75;1.42;;;;;;;32.09;21.87;101122.22;5025909;28;97549;-71
2022/06/23 10:30:40;;;;;;;1.33;1.23;;;;;;;31.94;22.00;101122.16;5029987;28;97278;-71
2022/06/23 10:33:32;;;;;;;3.13;1.75;;;;;;;31.96;21.95;101115.50;5032201;27;99135;-71
2022/06/23 10:36:18;;;;;;;5.07;1.92;;;;;;;32.06;21.48;101117.94;5028858;28;99136;-70
2022/06/23 10:38:59;;;;;;;3.00;1.60;;;;;;;32.05;21.82;101122.56;5027014;28;97353;-71
2022/06/23 10:41:43;;;;;;;3.63;1.40;;;;;;;32.05;21.33;101117.09;5031281;28;97316;-71
2022/06/23 10:44:34;;;;;;;13.75;2.38;;;;;;;32.18;21.26;101124.69;5030200;28;99125;-71
2022/06/23 10:47:15;;;;;;;4.40;1.58;;;;;;;32.25;21.38;101128.38;5028177;28;101304;-70
2022/06/23 10:50:11;;;;;;;5.05;1.52;;;;;;;32.37;20.44;101120.56;5029444;28;96785;-71
2022/06/23 10:52:51;;;;;;;3.08;1.52;;;;;;;32.35;20.78;101122.66;5026224;27;96910;-72
2022/06/23 10:55:53;;;;;;;4.47;1.80;;;;;;;32.38;20.31;101109.44;5031708;27;99160;-71
2022/06/23 10:58:51;;;;;;;4.20;1.80;;;;;;;32.15;20.51;101110.56;5015513;27;99093;-70
2022/06/23 11:01:37;;;;;;;5.63;1.40;;;;;;;32.45;20.83;101102.19;5028379;28;96803;-72
2022/06/23 11:04:36;;;;;;;5.57;1.83;;;;;;;32.61;20.55;101109.38;5028001;28;97171;-71
2022/06/23 11:07:19;;;;;;;3.25;1.63;;;;;;;32.34;20.46;101104.56;5029577;28;101419;-71
2022/06/23 11:09:58;;;;;;;4.75;1.42;;;;;;;32.49;20.74;101099.94;5025255;28;98624;-71
2022/06/23 11:12:37;;;;;;;2.80;1.58;;;;;;;32.44;21.23;101096.91;5031751;27;96826;-71
2022/06/23 11:15:13;;;;;;;4.40;1.63;;;;;;;32.47;20.97;101096.53;5028852;27;96779;-70
2022/06/23 11:17:54;;;;;;;3.47;1.63;;;;;;;32.33;20.55;101090.03;5030023;28;99075;-71
2022/06/23 11:20:34;;;;;;;5.50;1.30;;;;;;;32.46;20.83;101083.91;5030018;27;101505;-70
2022/06/23 11:23:14;;;;;;;6.05;1.60;;;;;;;32.38;21.04;101087.56;5028982;28;97219;-72
2022/06/23 11:25:51;;;;;;;4.88;1.40;;;;;;;32.63;20.66;101081.81;5029906;28;97101;-71
2022/06/23 11:28:26;;;;;;;4.60;1.42;;;;;;;32.70;20.50;101082.78;5021952;27;99492;-72
2022/06/23 11:31:04;;;;;;;4.15;1.40;;;;;;;32.65;20.78;101085.22;5026100;28;99308;-71
2022/06/23 11:33:47;;;;;;;3.97;1.60;;;;;;;32.65;20.63;101082.47;5031522;27;97160;-71
2022/06/23 11:36:25;;;;;;;4.88;1.20;;;;;;;32.65;20.81;101083.31;5028369;28;97456;-71
2022/06/23 11:39:28;;;;;;;1.48;1.30;;;;;;;32.90;20.56;101083.88;5028743;28;101590;-72
2022/06/23 11:42:09;;;;;;;5.78;1.20;;;;;;;32.95;20.19;101086.06;5031112;28;98963;-70
2022/06/23 11:44:54;;;;;;;3.40;1.30;;;;;;;32.71;19.76;101079.84;5020487;28;96829;-70
2022/06/23 11:47:30;;;;;;;3.17;1.50;;;;;;;32.74;19.56;101081.38;5029723;28;96921;-72
2022/06/23 11:50:08;;;;;;;4.27;1.27;;;;;;;32.80;20.28;101073.25;5026157;28;99375;-71
2022/06/23 11:52:51;;;;;;;4.90;1.40;;;;;;;32.92;19.36;101081.81;5026613;28;99179;-71
2022/06/23 11:55:29;;;;;;;6.00;1.75;;;;;;;33.02;19.28;101078.75;5029822;28;97094;-70
2022/06/23 11:58:11;;;;;;;4.22;1.10;;;;;;;33.10;19.71;101064.97;5025689;28;96856;-70
2022/06/23 12:00:49;;;;;;;3.45;1.65;;;;;;;32.99;19.85;101069.06;5026681;28;99011;-71
2022/06/23 12:03:29;;;;;;;2.20;1.10;;;;;;;32.93;19.42;101063.50;5030048;28;100609;-71
2022/06/23 12:06:06;;;;;;;4.72;1.10;;;;;;;33.12;19.88;101063.75;5026209;27;97265;-71
2022/06/23 12:08:46;;;;;;;10.32;1.20;;;;;;;33.05;19.56;101054.59;5026646;28;97454;-70
2022/06/23 12:11:14;;;;;;;2.50;1.05;;;;;;;33.08;19.56;101061.59;5029110;28;98969;-72
2022/06/23 12:13:41;;;;;;;4.00;1.23;;;;;;;32.95;19.91;101062.25;5026829;27;98778;-71